Bromide, Oklahoma
Current Conditions -  °F | °C
As of 1:15 PM on Friday 21 Nov 2014 (Local Time) from KAQR Reporting Station
Haze Haze  
Wind Chill: 55°   Ceiling: 200
Heat Index: 55°   Visibility: 2.5mi
Dew Point: 55°   Wind: 5mph
Humidity: 100%   Direction: 140°SE
Pressure: 30.1"   Gusts: NA
Location:  34.42°N, 96.5°W
Report Text: KAQR 211915Z AUTO 14004KT 2 1/2SM BR OVC002 13/13 A3010 RMK AO2
Loading
Personal Weather Stations






























Interactive Weather Map New forecast layout! Learn more

10-Day Weather Forecast

Advertisements
Track Severe Weather on mobile